Time;durP1;ratioP1;P1;durP2;ratioP2;P2;SDS_P1;SDS_P2;PMS_P1;PMS_P2;Temp;Humidity;BMP_temperature;BMP_pressure;BME280_temperature;BME280_humidity;BME280_pressure;Samples;Min_cycle;Max_cycle;Signal;HPM_P1;HPM_P2
2023/12/19 00:00:44;;;;;;;2.50;1.30;;;6.80;93.70;;;;;;5068845;28;20187;-72
2023/12/19 00:03:10;;;;;;;1.23;1.13;;;6.80;93.70;;;;;;5070062;28;20214;-72
2023/12/19 00:05:35;;;;;;;1.57;1.30;;;6.70;93.80;;;;;;5051891;28;20526;-72
2023/12/19 00:08:01;;;;;;;2.10;1.60;;;6.60;95.10;;;;;;5068538;28;21312;-72
2023/12/19 00:10:26;;;;;;;9.30;3.97;;;6.50;94.50;;;;;;5051757;28;20214;-72
2023/12/19 00:12:52;;;;;;;15.23;7.63;;;6.20;97.20;;;;;;5069839;28;20185;-72
2023/12/19 00:15:22;;;;;;;9.47;6.00;;;5.50;99.90;;;;;;5069941;28;20692;-72
2023/12/19 00:17:48;;;;;;;8.43;6.10;;;5.20;99.90;;;;;;5052129;28;20277;-72
2023/12/19 00:20:13;;;;;;;11.50;7.30;;;4.70;99.90;;;;;;5068274;28;20424;-72
2023/12/19 00:22:39;;;;;;;12.93;7.50;;;4.30;99.90;;;;;;5068117;28;20417;-72
2023/12/19 00:25:05;;;;;;;9.23;6.40;;;4.00;99.90;;;;;;5069432;28;20264;-73
2023/12/19 00:27:30;;;;;;;16.13;7.90;;;3.90;99.90;;;;;;5069278;28;20267;-72
2023/12/19 00:29:56;;;;;;;14.63;8.20;;;3.60;99.90;;;;;;5069385;28;20836;-72
2023/12/19 00:32:22;;;;;;;12.90;8.77;;;3.40;99.90;;;;;;5068135;28;20287;-72
2023/12/19 00:34:47;;;;;;;10.70;7.00;;;3.10;99.90;;;;;;5069530;28;20173;-73
2023/12/19 00:37:13;;;;;;;11.27;7.80;;;3.00;99.90;;;;;;5067859;28;20217;-72
2023/12/19 00:39:39;;;;;;;15.95;8.75;;;2.90;99.90;;;;;;5069520;28;20181;-72
2023/12/19 00:42:05;;;;;;;12.33;8.03;;;2.80;99.90;;;;;;5051016;28;20215;-72
2023/12/19 00:44:30;;;;;;;11.33;6.80;;;2.80;99.90;;;;;;5067965;28;20177;-72
2023/12/19 00:46:56;;;;;;;12.70;8.00;;;2.90;99.90;;;;;;5068829;28;20208;-73
2023/12/19 00:49:21;;;;;;;9.40;7.47;;;2.80;99.90;;;;;;5067664;28;20196;-72
2023/12/19 00:51:47;;;;;;;5.30;3.60;;;2.80;99.90;;;;;;5069266;28;20193;-72
2023/12/19 00:54:13;;;;;;;12.57;6.00;;;3.00;99.90;;;;;;5067784;28;20215;-72
2023/12/19 00:56:42;;;;;;;10.60;7.67;;;3.00;99.90;;;;;;5067701;28;20201;-73
2023/12/19 00:59:08;;;;;;;4.97;2.97;;;2.90;99.90;;;;;;5069167;28;20179;-72
2023/12/19 01:01:33;;;;;;;3.90;1.60;;;3.00;99.90;;;;;;5069030;28;20729;-73
2023/12/19 01:03:59;;;;;;;2.93;1.83;;;3.40;99.90;;;;;;5067501;28;20187;-73
2023/12/19 01:06:24;;;;;;;3.00;1.40;;;3.80;99.90;;;;;;5068847;28;20205;-72
2023/12/19 01:08:50;;;;;;;0.93;0.83;;;4.20;99.90;;;;;;5069113;28;20259;-73
2023/12/19 01:11:16;;;;;;;1.50;1.30;;;4.30;99.90;;;;;;5068588;28;20737;-72
2023/12/19 01:13:41;;;;;;;1.33;1.10;;;4.40;99.90;;;;;;5067015;28;20173;-72
2023/12/19 01:16:08;;;;;;;1.63;0.93;;;4.40;99.90;;;;;;5068243;28;20247;-73
2023/12/19 01:18:33;;;;;;;0.82;0.80;;;4.70;99.90;;;;;;5069410;28;20189;-70
2023/12/19 01:20:59;;;;;;;1.20;0.77;;;5.20;98.00;;;;;;5068597;28;20187;-73
2023/12/19 01:23:25;;;;;;;1.43;1.27;;;5.20;98.50;;;;;;5067035;28;20285;-71
2023/12/19 01:25:51;;;;;;;1.47;1.00;;;5.10;98.50;;;;;;5068307;28;20218;-72
2023/12/19 01:28:16;;;;;;;1.00;0.80;;;5.70;93.30;;;;;;5066871;28;20432;-72
2023/12/19 01:30:42;;;;;;;2.90;1.17;;;6.00;91.50;;;;;;5066981;28;20273;-72
2023/12/19 01:33:09;;;;;;;1.00;0.83;;;6.40;88.70;;;;;;5066837;28;20222;-72
2023/12/19 01:35:38;;;;;;;1.33;1.00;;;6.60;89.90;;;;;;5068350;28;21112;-73
2023/12/19 01:38:04;;;;;;;1.20;0.70;;;6.90;84.80;;;;;;5068248;28;20461;-73
2023/12/19 01:40:31;;;;;;;2.70;0.93;;;6.90;85.60;;;;;;5068116;28;20468;-72
2023/12/19 01:42:58;;;;;;;1.00;0.70;;;6.60;90.30;;;;;;5050204;28;20256;-72
2023/12/19 01:45:25;;;;;;;1.10;0.77;;;6.60;86.40;;;;;;5068078;28;20429;-72
2023/12/19 01:47:51;;;;;;;0.90;0.70;;;6.80;87.30;;;;;;5066835;28;20900;-72
2023/12/19 01:50:17;;;;;;;2.37;1.03;;;6.70;85.20;;;;;;5068157;28;20481;-72
2023/12/19 01:52:56;;;;;;;0.90;0.70;;;6.70;85.90;;;;;;5068462;28;20240;-72
2023/12/19 01:55:24;;;;;;;0.80;0.70;;;7.20;79.10;;;;;;5050250;28;20544;-72
2023/12/19 01:57:50;;;;;;;1.67;0.90;;;7.30;79.30;;;;;;5070484;28;20445;-72
2023/12/19 02:00:16;;;;;;;0.90;0.60;;;7.20;81.50;;;;;;5071062;28;20468;-72
2023/12/19 02:02:43;;;;;;;1.17;0.70;;;7.10;83.10;;;;;;5072521;28;20421;-73
2023/12/19 02:05:09;;;;;;;1.17;0.60;;;6.80;88.60;;;;;;5072491;28;20426;-72
2023/12/19 02:07:35;;;;;;;1.83;0.90;;;6.60;89.10;;;;;;5071098;28;20476;-72
2023/12/19 02:10:01;;;;;;;2.33;0.93;;;6.30;90.20;;;;;;5070917;28;20496;-72
2023/12/19 02:12:27;;;;;;;1.23;1.07;;;6.00;91.60;;;;;;5070944;28;20175;-72
2023/12/19 02:14:54;;;;;;;1.00;0.80;;;5.90;92.20;;;;;;5072198;28;20179;-72
2023/12/19 02:17:21;;;;;;;1.50;1.40;;;5.80;91.90;;;;;;5071933;28;20433;-72
2023/12/19 02:19:48;;;;;;;2.10;0.97;;;5.80;91.30;;;;;;5072061;28;20491;-71
2023/12/19 02:22:13;;;;;;;1.30;1.20;;;5.80;92.30;;;;;;5071921;28;20417;-71
2023/12/19 02:24:39;;;;;;;1.20;0.87;;;5.70;92.70;;;;;;5070449;28;20425;-73
2023/12/19 02:27:06;;;;;;;8.53;4.57;;;5.70;92.60;;;;;;5071516;28;20452;-71
2023/12/19 02:29:32;;;;;;;7.60;4.80;;;5.30;99.90;;;;;;5071522;28;20448;-71
2023/12/19 02:32:00;;;;;;;8.00;5.00;;;4.60;99.90;;;;;;5070256;28;20448;-71
2023/12/19 02:34:25;;;;;;;13.30;7.63;;;4.10;99.90;;;;;;5070364;28;20456;-73
2023/12/19 02:36:51;;;;;;;18.87;8.07;;;3.70;99.90;;;;;;5071659;28;20460;-73
2023/12/19 02:39:17;;;;;;;19.60;9.57;;;3.30;99.90;;;;;;5071831;28;20182;-73
2023/12/19 02:41:42;;;;;;;14.50;8.20;;;3.00;99.90;;;;;;5070210;28;20238;-72
2023/12/19 02:44:08;;;;;;;15.13;7.90;;;2.90;99.90;;;;;;5071529;28;20653;-73
2023/12/19 02:46:34;;;;;;;13.60;6.93;;;2.70;99.90;;;;;;5071570;28;20202;-73
2023/12/19 02:49:00;;;;;;;11.17;6.40;;;2.50;99.90;;;;;;5070300;28;20931;-73
2023/12/19 02:51:26;;;;;;;8.65;5.40;;;2.40;99.90;;;;;;5071273;28;20206;-73
2023/12/19 02:53:53;;;;;;;8.95;5.80;;;2.30;99.90;;;;;;5069825;28;20939;-73
2023/12/19 02:56:19;;;;;;;9.90;4.85;;;2.20;99.90;;;;;;5071346;28;20228;-72
2023/12/19 02:58:44;;;;;;;6.27;5.20;;;1.90;99.90;;;;;;5071660;28;20209;-73
2023/12/19 03:01:10;;;;;;;7.70;4.90;;;1.90;99.90;;;;;;5071825;28;20185;-73
2023/12/19 03:03:36;;;;;;;4.60;3.40;;;1.90;99.90;;;;;;5071907;28;20833;-73
2023/12/19 03:06:02;;;;;;;8.30;4.43;;;2.10;99.90;;;;;;5071892;28;20204;-73
2023/12/19 03:08:27;;;;;;;3.73;2.27;;;2.40;99.90;;;;;;5070459;28;20178;-73
2023/12/19 03:10:53;;;;;;;1.20;1.10;;;2.80;99.90;;;;;;5070254;28;20458;-73
2023/12/19 03:13:19;;;;;;;1.33;1.23;;;3.10;99.90;;;;;;5070360;28;20183;-72
2023/12/19 03:15:44;;;;;;;2.50;2.00;;;3.40;99.90;;;;;;5070437;28;20201;-73
2023/12/19 03:18:10;;;;;;;1.53;1.43;;;3.60;99.90;;;;;;5071709;28;20952;-73
2023/12/19 03:20:36;;;;;;;2.80;1.80;;;3.60;99.90;;;;;;5071608;28;20193;-73
2023/12/19 03:23:02;;;;;;;2.67;1.80;;;3.70;99.90;;;;;;5071740;28;20592;-73
2023/12/19 03:25:28;;;;;;;1.40;0.90;;;3.70;99.90;;;;;;5053041;28;20196;-73
2023/12/19 03:27:53;;;;;;;1.50;1.25;;;3.80;99.90;;;;;;5070839;28;20450;-73
2023/12/19 03:30:19;;;;;;;1.10;1.00;;;3.80;99.90;;;;;;5069650;28;20249;-71
2023/12/19 03:32:45;;;;;;;1.77;1.10;;;4.20;99.90;;;;;;5071040;28;20184;-72
2023/12/19 03:35:13;;;;;;;3.00;1.50;;;4.60;99.90;;;;;;5070859;28;20255;-72
2023/12/19 03:37:39;;;;;;;2.17;1.20;;;4.50;99.90;;;;;;5070950;28;20203;-73
2023/12/19 03:40:05;;;;;;;1.63;1.40;;;4.30;99.90;;;;;;5069456;28;20327;-73
2023/12/19 03:42:33;;;;;;;1.47;1.37;;;4.00;99.90;;;;;;5070563;28;20255;-72
2023/12/19 03:44:58;;;;;;;1.70;1.20;;;4.00;99.90;;;;;;5069077;28;20431;-72
2023/12/19 03:47:24;;;;;;;2.40;1.13;;;3.90;99.90;;;;;;5070615;28;20470;-73
2023/12/19 03:49:50;;;;;;;8.10;3.60;;;3.80;99.90;;;;;;5070518;28;20205;-73
2023/12/19 03:52:15;;;;;;;4.63;3.00;;;3.70;99.90;;;;;;5070427;28;20255;-73
2023/12/19 03:54:41;;;;;;;5.13;3.40;;;3.30;99.90;;;;;;5068906;28;20519;-72
2023/12/19 03:57:06;;;;;;;4.33;3.13;;;3.10;99.90;;;;;;5070344;28;20210;-72
2023/12/19 03:59:32;;;;;;;3.57;2.70;;;2.90;99.90;;;;;;5052143;28;20191;-72
2023/12/19 04:01:59;;;;;;;4.03;2.83;;;2.80;99.90;;;;;;5069105;28;20549;-72
2023/12/19 04:04:25;;;;;;;11.73;6.00;;;2.70;99.90;;;;;;5070645;28;20198;-72
2023/12/19 04:06:51;;;;;;;8.00;4.50;;;2.60;99.90;;;;;;5070470;28;20306;-72
2023/12/19 04:09:16;;;;;;;8.50;4.13;;;2.50;99.90;;;;;;5070375;28;20915;-72
2023/12/19 04:11:48;;;;;;;5.83;4.97;;;2.40;99.90;;;;;;5070246;28;20664;-72
2023/12/19 04:14:14;;;;;;;6.85;4.43;;;2.30;99.90;;;;;;5052762;28;20281;-72
2023/12/19 04:16:40;;;;;;;10.20;7.60;;;2.10;99.90;;;;;;5069850;28;20197;-72
2023/12/19 04:19:06;;;;;;;15.40;8.50;;;2.10;99.90;;;;;;5069920;28;20290;-72
2023/12/19 04:21:32;;;;;;;13.63;8.15;;;2.00;99.90;;;;;;5069484;28;20299;-72
2023/12/19 04:23:58;;;;;;;11.70;7.17;;;1.90;99.90;;;;;;5069998;28;20300;-72
2023/12/19 04:26:23;;;;;;;9.10;5.50;;;1.80;99.90;;;;;;5069718;28;20227;-72
2023/12/19 04:28:49;;;;;;;5.83;4.70;;;1.80;99.90;;;;;;5052031;28;20191;-73
2023/12/19 04:31:14;;;;;;;4.43;3.87;;;1.70;99.90;;;;;;5070292;28;20204;-73
2023/12/19 04:33:40;;;;;;;5.50;4.30;;;1.60;99.90;;;;;;5068805;28;20180;-73
2023/12/19 04:36:09;;;;;;;5.30;3.80;;;1.50;99.90;;;;;;5068499;28;20265;-73
2023/12/19 04:38:36;;;;;;;6.65;4.55;;;1.50;99.90;;;;;;5068910;28;20184;-73
2023/12/19 04:41:02;;;;;;;6.55;4.38;;;1.40;99.90;;;;;;5070333;28;20185;-72
2023/12/19 04:43:28;;;;;;;6.35;4.03;;;1.40;99.90;;;;;;5070085;28;20178;-73
2023/12/19 04:45:54;;;;;;;5.13;3.73;;;1.30;99.90;;;;;;5069532;28;20215;-73
2023/12/19 04:48:19;;;;;;;6.50;4.13;;;1.20;99.90;;;;;;5068123;28;20185;-72
2023/12/19 04:50:45;;;;;;;3.70;2.93;;;1.10;99.90;;;;;;5069102;28;20239;-74
2023/12/19 04:53:10;;;;;;;4.17;2.93;;;1.00;99.90;;;;;;5067666;28;20179;-73
2023/12/19 04:55:36;;;;;;;4.17;2.90;;;1.00;99.90;;;;;;5068989;28;20659;-74
2023/12/19 04:58:02;;;;;;;4.77;3.43;;;1.10;99.90;;;;;;5068603;28;20292;-73
2023/12/19 05:00:28;;;;;;;3.80;2.85;;;1.20;99.90;;;;;;5068237;28;20718;-73
2023/12/19 05:02:54;;;;;;;3.80;3.00;;;1.50;99.90;;;;;;5067151;28;20200;-73
2023/12/19 05:05:20;;;;;;;6.40;5.03;;;1.60;99.90;;;;;;5068468;28;20266;-73
2023/12/19 05:07:46;;;;;;;7.32;4.70;;;1.80;99.90;;;;;;5068440;28;20207;-73
2023/12/19 05:10:11;;;;;;;15.03;6.83;;;2.00;99.90;;;;;;5067174;28;20568;-73
2023/12/19 05:12:38;;;;;;;2.20;1.30;;;2.20;99.90;;;;;;5067037;28;20177;-73
2023/12/19 05:15:04;;;;;;;1.15;0.90;;;2.40;99.90;;;;;;5068097;28;20183;-73
2023/12/19 05:17:30;;;;;;;1.00;0.77;;;2.60;99.90;;;;;;5067487;28;20209;-73
2023/12/19 05:19:55;;;;;;;1.30;1.13;;;2.80;99.90;;;;;;5065985;28;20511;-73
2023/12/19 05:22:21;;;;;;;1.73;1.60;;;3.00;99.90;;;;;;5066060;28;20426;-73
2023/12/19 05:24:47;;;;;;;1.47;1.27;;;3.00;99.90;;;;;;5065980;28;20190;-73
2023/12/19 05:27:12;;;;;;;1.50;1.30;;;3.10;99.90;;;;;;5067206;28;20233;-73
2023/12/19 05:29:38;;;;;;;1.50;1.40;;;3.10;99.90;;;;;;5065416;28;20195;-73
2023/12/19 05:32:07;;;;;;;2.20;1.00;;;3.30;99.90;;;;;;5049010;28;20272;-73
2023/12/19 05:34:32;;;;;;;1.52;1.40;;;3.50;99.90;;;;;;5066964;28;20188;-73
2023/12/19 05:36:58;;;;;;;1.50;1.20;;;3.70;99.90;;;;;;5065760;28;20545;-73
2023/12/19 05:39:24;;;;;;;1.53;1.10;;;3.70;99.90;;;;;;5049189;28;20189;-73
2023/12/19 05:41:51;;;;;;;2.90;1.40;;;3.50;99.90;;;;;;5066317;28;20801;-74
2023/12/19 05:44:17;;;;;;;1.60;1.50;;;3.30;99.90;;;;;;5067927;28;20416;-74
2023/12/19 05:46:43;;;;;;;1.85;1.75;;;3.40;99.90;;;;;;5065957;28;20440;-74
2023/12/19 05:49:09;;;;;;;1.40;1.30;;;3.40;99.90;;;;;;5066439;28;20197;-73
2023/12/19 05:51:39;;;;;;;1.50;1.40;;;3.50;99.90;;;;;;5067226;28;20209;-73
2023/12/19 05:54:05;;;;;;;1.80;0.98;;;3.70;99.90;;;;;;5067665;28;20257;-74
2023/12/19 05:56:32;;;;;;;1.23;1.13;;;4.20;99.90;;;;;;5067431;28;20627;-74
2023/12/19 05:58:57;;;;;;;1.70;1.30;;;4.70;99.90;;;;;;5067664;28;20465;-74
2023/12/19 06:01:23;;;;;;;1.27;1.17;;;5.10;98.10;;;;;;5066265;28;20949;-73
2023/12/19 06:03:49;;;;;;;1.50;1.40;;;5.20;97.50;;;;;;5067868;28;20447;-73
2023/12/19 06:06:15;;;;;;;1.37;1.27;;;5.20;98.20;;;;;;5049344;28;20214;-74
2023/12/19 06:08:42;;;;;;;1.60;1.30;;;5.10;98.10;;;;;;5067614;28;20189;-73
2023/12/19 06:11:08;;;;;;;1.23;1.13;;;5.00;98.50;;;;;;5049195;28;20469;-72
2023/12/19 06:13:34;;;;;;;1.70;0.90;;;5.00;97.50;;;;;;5065956;28;20942;-74
2023/12/19 06:16:00;;;;;;;1.30;0.80;;;5.10;97.10;;;;;;5065463;28;20445;-73
2023/12/19 06:18:25;;;;;;;4.10;1.10;;;5.40;96.00;;;;;;5067353;28;20665;-71
2023/12/19 06:20:51;;;;;;;8.30;0.80;;;5.60;94.50;;;;;;5067250;28;20187;-72
2023/12/19 06:23:16;;;;;;;0.80;0.67;;;6.00;92.20;;;;;;5065794;28;20188;-72
2023/12/19 06:25:42;;;;;;;0.90;0.70;;;6.30;91.50;;;;;;5067006;28;20215;-74
2023/12/19 06:28:08;;;;;;;0.90;0.70;;;6.50;90.60;;;;;;5066816;28;20280;-72
2023/12/19 06:30:33;;;;;;;0.80;0.70;;;6.60;90.20;;;;;;5065333;28;20834;-71
2023/12/19 06:32:59;;;;;;;1.57;1.00;;;6.70;89.50;;;;;;5066698;28;20262;-72
2023/12/19 06:35:27;;;;;;;1.43;0.90;;;6.60;90.70;;;;;;5065027;28;20185;-73
2023/12/19 06:37:52;;;;;;;2.87;1.63;;;6.40;91.00;;;;;;5067087;28;20249;-72
2023/12/19 06:40:18;;;;;;;2.40;1.10;;;6.20;92.10;;;;;;5066555;28;21133;-73
2023/12/19 06:42:44;;;;;;;2.70;1.53;;;6.00;92.60;;;;;;5066483;28;20715;-72
2023/12/19 06:45:12;;;;;;;1.33;0.80;;;5.90;92.40;;;;;;5070030;28;20692;-73
2023/12/19 06:47:37;;;;;;;1.77;1.33;;;5.90;92.80;;;;;;5068613;28;21113;-73
2023/12/19 06:50:06;;;;;;;1.43;0.97;;;5.80;93.50;;;;;;5069852;28;20598;-73
2023/12/19 06:52:32;;;;;;;1.30;1.00;;;5.60;94.70;;;;;;5070086;28;20182;-72
2023/12/19 06:54:57;;;;;;;3.20;2.00;;;5.40;95.50;;;;;;5070264;28;20425;-73
2023/12/19 06:57:24;;;;;;;4.10;1.20;;;5.20;96.10;;;;;;5070526;28;20202;-72
2023/12/19 06:59:50;;;;;;;1.93;1.57;;;5.10;98.80;;;;;;5070236;28;20413;-71
2023/12/19 07:02:16;;;;;;;1.97;1.73;;;5.10;99.30;;;;;;5069977;28;20418;-73
2023/12/19 07:04:43;;;;;;;4.23;2.10;;;5.00;98.40;;;;;;5068363;28;20304;-72
2023/12/19 07:07:08;;;;;;;3.37;2.13;;;4.90;98.10;;;;;;5070343;28;20456;-72
2023/12/19 07:09:35;;;;;;;2.43;1.80;;;4.80;97.90;;;;;;5052312;28;20194;-73
2023/12/19 07:12:01;;;;;;;3.00;1.60;;;4.70;99.00;;;;;;5070723;28;20183;-71
2023/12/19 07:14:27;;;;;;;5.60;1.37;;;4.70;99.70;;;;;;5070699;28;20990;-72
2023/12/19 07:16:52;;;;;;;3.83;1.80;;;4.70;99.90;;;;;;5068774;28;20290;-73
2023/12/19 07:19:18;;;;;;;7.43;5.40;;;4.60;99.90;;;;;;5070476;28;20520;-73
2023/12/19 07:21:44;;;;;;;5.80;4.50;;;4.30;99.90;;;;;;5070908;28;20187;-73
2023/12/19 07:24:10;;;;;;;5.90;4.03;;;3.80;99.90;;;;;;5069203;28;20187;-73
2023/12/19 07:26:35;;;;;;;5.40;4.17;;;3.40;99.90;;;;;;5070472;28;20321;-73
2023/12/19 07:29:02;;;;;;;6.70;5.10;;;3.00;99.90;;;;;;5070812;28;20923;-73
2023/12/19 07:31:31;;;;;;;8.95;5.63;;;2.50;99.90;;;;;;5070547;28;20259;-73
2023/12/19 07:34:03;;;;;;;8.18;5.85;;;2.00;99.90;;;;;;5069922;28;20185;-73
2023/12/19 07:36:30;;;;;;;8.90;5.63;;;1.70;99.90;;;;;;5068122;28;20335;-73
2023/12/19 07:38:55;;;;;;;8.73;6.30;;;1.50;99.90;;;;;;5067935;28;20237;-73
2023/12/19 07:41:22;;;;;;;6.40;4.80;;;1.40;99.90;;;;;;5069765;28;20189;-73
2023/12/19 07:43:48;;;;;;;6.63;4.50;;;1.40;99.90;;;;;;5069767;28;20188;-74
2023/12/19 07:46:15;;;;;;;8.50;5.20;;;1.30;99.90;;;;;;5068157;28;20212;-73
2023/12/19 07:48:40;;;;;;;6.15;5.00;;;1.20;99.90;;;;;;5069302;28;20414;-73
2023/12/19 07:51:07;;;;;;;6.40;4.37;;;1.10;99.90;;;;;;5067970;28;20211;-73
2023/12/19 07:53:32;;;;;;;7.63;3.92;;;1.10;99.90;;;;;;5068941;28;20275;-73
2023/12/19 07:56:03;;;;;;;6.53;3.57;;;1.10;99.90;;;;;;5049590;28;20307;-73
2023/12/19 07:58:29;;;;;;;8.45;5.30;;;1.10;99.90;;;;;;5068995;28;20176;-73
2023/12/19 08:00:55;;;;;;;2.53;2.33;;;1.20;99.90;;;;;;5069112;28;20542;-72
2023/12/19 08:03:24;;;;;;;4.40;3.00;;;1.60;99.90;;;;;;5067392;28;20192;-72
2023/12/19 08:05:50;;;;;;;4.22;3.40;;;2.20;99.90;;;;;;5068858;28;20511;-73
2023/12/19 08:08:19;;;;;;;4.07;3.20;;;3.70;99.90;;;;;;5068744;28;20254;-73
2023/12/19 08:10:45;;;;;;;2.67;2.28;;;5.40;99.90;;;;;;5068525;28;20344;-73
2023/12/19 08:13:14;;;;;;;3.23;2.50;;;6.00;99.90;;;;;;5068748;28;20196;-72
2023/12/19 08:15:42;;;;;;;2.30;2.03;;;6.40;99.90;;;;;;5068610;28;20966;-74
2023/12/19 08:18:08;;;;;;;4.50;2.77;;;7.10;99.30;;;;;;5051046;28;20960;-72
2023/12/19 08:20:35;;;;;;;4.33;2.80;;;8.00;99.80;;;;;;5068498;28;20559;-73
2023/12/19 08:23:01;;;;;;;9.27;6.00;;;10.00;99.90;;;;;;5068228;28;20543;-73
2023/12/19 08:25:26;;;;;;;7.90;6.40;;;11.60;93.90;;;;;;5066428;28;20456;-73
2023/12/19 08:27:52;;;;;;;12.90;8.70;;;13.10;92.40;;;;;;5066613;28;20426;-73
2023/12/19 08:30:18;;;;;;;9.83;6.77;;;13.20;85.10;;;;;;5066805;28;20216;-74
2023/12/19 08:32:43;;;;;;;11.17;6.80;;;13.70;83.00;;;;;;5066539;28;20186;-75
2023/12/19 08:35:09;;;;;;;8.30;6.53;;;13.80;78.00;;;;;;5066856;28;20186;-73
2023/12/19 08:37:35;;;;;;;9.53;5.53;;;14.70;79.00;;;;;;5066585;28;20298;-74
2023/12/19 08:40:03;;;;;;;10.00;7.50;;;15.50;74.60;;;;;;5066380;28;20669;-73
2023/12/19 08:42:29;;;;;;;7.37;5.83;;;16.00;70.00;;;;;;5066770;28;20421;-75
2023/12/19 08:44:55;;;;;;;7.07;6.03;;;16.80;68.30;;;;;;5066965;28;20867;-74
2023/12/19 08:47:24;;;;;;;9.67;6.17;;;17.20;67.00;;;;;;5068379;28;21005;-74
2023/12/19 08:49:52;;;;;;;13.40;10.37;;;17.60;64.00;;;;;;5068105;28;20470;-75
2023/12/19 08:52:19;;;;;;;9.00;7.30;;;17.90;61.20;;;;;;5067845;28;20417;-74
2023/12/19 08:54:45;;;;;;;9.10;6.70;;;17.80;58.30;;;;;;5066399;28;20516;-73
2023/12/19 08:57:10;;;;;;;10.23;7.90;;;16.70;57.80;;;;;;5066462;28;20570;-73
2023/12/19 08:59:36;;;;;;;10.03;6.90;;;15.40;58.70;;;;;;5067927;28;20179;-73
2023/12/19 09:02:04;;;;;;;8.13;6.20;;;14.10;60.20;;;;;;5066391;28;20193;-73
2023/12/19 09:04:30;;;;;;;12.90;9.50;;;12.70;62.10;;;;;;5066127;28;20179;-72
2023/12/19 09:06:56;;;;;;;10.70;7.37;;;11.10;63.40;;;;;;5065998;28;20824;-74
2023/12/19 09:09:22;;;;;;;10.70;7.27;;;10.00;67.20;;;;;;5067769;28;20179;-72
2023/12/19 09:11:48;;;;;;;10.83;6.30;;;9.30;72.40;;;;;;5067532;28;20485;-73
2023/12/19 09:14:15;;;;;;;8.27;5.33;;;8.70;76.80;;;;;;5067585;28;20420;-73
2023/12/19 09:16:40;;;;;;;7.13;4.90;;;8.20;80.60;;;;;;5067610;28;20193;-73
2023/12/19 09:19:07;;;;;;;9.80;4.80;;;7.70;84.30;;;;;;5066865;28;20419;-73
2023/12/19 09:21:32;;;;;;;10.67;6.37;;;7.40;87.40;;;;;;5065836;28;20251;-72
2023/12/19 09:23:58;;;;;;;9.97;6.40;;;7.10;89.80;;;;;;5068099;28;20415;-72
2023/12/19 09:26:24;;;;;;;13.87;8.87;;;6.90;91.80;;;;;;5049747;28;20332;-73
2023/12/19 09:28:49;;;;;;;12.00;7.83;;;6.60;94.50;;;;;;5066335;28;20684;-73
2023/12/19 09:31:15;;;;;;;10.83;7.77;;;7.00;97.30;;;;;;5066072;28;20211;-73
2023/12/19 09:33:41;;;;;;;8.90;6.27;;;8.70;93.70;;;;;;5067903;28;20189;-73
2023/12/19 09:36:18;;;;;;;8.10;5.70;;;10.70;86.40;;;;;;5066845;28;20908;-74
2023/12/19 09:38:45;;;;;;;6.63;5.00;;;12.20;79.30;;;;;;5066519;28;20182;-73
2023/12/19 09:41:11;;;;;;;8.03;4.13;;;13.50;72.90;;;;;;5067345;28;20466;-74
2023/12/19 09:43:36;;;;;;;5.40;4.77;;;14.70;69.30;;;;;;5065697;28;20820;-74
2023/12/19 09:46:03;;;;;;;7.90;5.03;;;16.20;66.00;;;;;;5066765;28;20633;-73
2023/12/19 09:48:36;;;;;;;7.73;6.10;;;17.60;61.90;;;;;;5065566;28;20678;-74
2023/12/19 09:51:04;;;;;;;7.77;5.80;;;18.80;59.40;;;;;;5067456;28;21044;-74
2023/12/19 09:53:32;;;;;;;8.83;6.40;;;19.30;56.70;;;;;;5065531;28;20508;-74
2023/12/19 09:56:01;;;;;;;7.90;5.33;;;20.40;56.10;;;;;;5067107;28;20441;-74
2023/12/19 09:58:31;;;;;;;9.73;4.60;;;21.00;53.10;;;;;;5065887;28;20935;-75
2023/12/19 10:01:00;;;;;;;9.17;6.37;;;21.40;51.10;;;;;;5067118;28;20803;-75
2023/12/19 10:03:29;;;;;;;5.80;5.03;;;22.10;49.40;;;;;;5067941;28;20429;-76
2023/12/19 10:05:56;;;;;;;9.30;7.90;;;22.10;47.70;;;;;;5067878;28;20476;-73
2023/12/19 10:08:21;;;;;;;8.57;6.77;;;22.40;47.50;;;;;;5067784;28;20432;-74
2023/12/19 10:10:57;;;;;;;9.37;7.20;;;22.60;47.00;;;;;;5066313;28;20573;-74
2023/12/19 10:13:32;;;;;;;11.70;7.50;;;22.60;45.60;;;;;;5067927;28;21007;-74
2023/12/19 10:16:06;;;;;;;10.90;6.90;;;22.10;45.30;;;;;;5068018;28;20437;-73
2023/12/19 10:18:32;;;;;;;13.20;8.37;;;22.60;45.50;;;;;;5067502;28;20417;-74
2023/12/19 10:21:10;;;;;;;14.37;9.00;;;23.50;46.10;;;;;;5071757;28;20802;-74
2023/12/19 10:23:43;;;;;;;14.67;8.00;;;23.20;45.20;;;;;;5071696;28;20412;-74
2023/12/19 10:26:10;;;;;;;13.17;8.07;;;22.40;46.80;;;;;;5071339;28;20904;-74
2023/12/19 10:28:37;;;;;;;11.33;7.70;;;21.10;45.70;;;;;;5071244;28;20420;-73
2023/12/19 10:31:06;;;;;;;9.23;7.00;;;20.00;46.80;;;;;;5071407;28;20468;-74
2023/12/19 10:33:46;;;;;;;7.63;5.47;;;19.50;48.00;;;;;;5071265;28;20415;-74
2023/12/19 10:36:31;;;;;;;7.77;6.33;;;17.80;48.40;;;;;;5069587;28;20446;-74
2023/12/19 10:38:59;;;;;;;12.40;6.93;;;16.20;49.50;;;;;;5070866;28;20420;-73
2023/12/19 10:41:26;;;;;;;9.93;7.40;;;15.30;51.30;;;;;;5052426;28;20854;-73
2023/12/19 10:43:56;;;;;;;14.33;8.00;;;14.60;52.00;;;;;;5070358;28;20856;-74
2023/12/19 10:46:24;;;;;;;13.63;8.33;;;14.30;53.70;;;;;;5070319;28;20508;-74
2023/12/19 10:49:03;;;;;;;11.17;8.20;;;14.30;54.20;;;;;;5070069;28;20528;-74
2023/12/19 10:51:41;;;;;;;13.83;8.77;;;14.40;55.00;;;;;;5070261;28;20455;-73
2023/12/19 10:54:14;;;;;;;9.83;7.90;;;14.30;54.20;;;;;;5068253;28;20514;-74
2023/12/19 10:57:06;;;;;;;11.27;7.40;;;14.70;53.90;;;;;;5069747;28;20439;-73
2023/12/19 10:59:58;;;;;;;13.27;7.13;;;14.60;54.00;;;;;;5069540;28;20473;-73
2023/12/19 11:02:59;;;;;;;12.53;7.93;;;14.10;54.30;;;;;;5069827;28;20401;-73
2023/12/19 11:05:47;;;;;;;11.50;7.53;;;13.70;55.80;;;;;;5069496;28;20418;-73
2023/12/19 11:08:21;;;;;;;12.67;8.90;;;13.10;57.00;;;;;;5069458;28;20405;-73
2023/12/19 11:10:57;;;;;;;13.33;7.93;;;13.00;57.90;;;;;;5069533;28;21034;-73
2023/12/19 11:13:25;;;;;;;15.33;9.30;;;13.00;59.30;;;;;;5069992;28;20410;-74
2023/12/19 11:16:06;;;;;;;14.50;9.30;;;12.30;59.00;;;;;;5069568;28;21005;-73
2023/12/19 11:18:42;;;;;;;15.40;8.40;;;11.70;61.20;;;;;;5068066;28;20471;-73
2023/12/19 11:21:14;;;;;;;14.53;7.57;;;11.00;64.80;;;;;;5069452;28;20473;-73
2023/12/19 11:23:40;;;;;;;12.67;8.03;;;10.30;68.60;;;;;;5069476;28;20971;-73
2023/12/19 11:26:16;;;;;;;13.17;8.60;;;10.30;74.60;;;;;;5069164;28;20484;-73
2023/12/19 11:28:41;;;;;;;37.77;18.63;;;10.30;76.70;;;;;;5069292;28;20189;-72
2023/12/19 11:31:26;;;;;;;16.93;10.53;;;10.10;81.80;;;;;;5068909;28;20906;-73
2023/12/19 11:33:51;;;;;;;19.20;9.20;;;10.00;84.70;;;;;;5069116;28;20911;-73
2023/12/19 11:36:18;;;;;;;15.30;8.87;;;9.70;87.00;;;;;;5067533;28;20534;-73
2023/12/19 11:38:43;;;;;;;12.93;8.33;;;9.50;90.80;;;;;;5068141;28;20516;-73
2023/12/19 11:41:09;;;;;;;16.13;9.40;;;9.30;92.80;;;;;;5069014;28;20425;-73
2023/12/19 11:43:36;;;;;;;15.20;8.30;;;9.40;93.40;;;;;;5069743;28;20180;-73
2023/12/19 11:46:06;;;;;;;16.47;9.90;;;9.00;94.90;;;;;;5069816;28;20191;-74
2023/12/19 11:48:39;;;;;;;21.00;11.10;;;8.80;97.10;;;;;;5069719;28;20444;-73
2023/12/19 11:51:07;;;;;;;17.93;11.13;;;8.50;99.70;;;;;;5069422;28;20464;-73
2023/12/19 11:53:34;;;;;;;20.60;10.90;;;8.80;99.90;;;;;;5069749;28;20430;-72
2023/12/19 11:56:12;;;;;;;17.10;10.43;;;9.00;99.90;;;;;;5067817;28;20448;-73
2023/12/19 11:58:51;;;;;;;12.80;9.80;;;9.40;99.90;;;;;;5069465;28;20419;-72
2023/12/19 12:01:23;;;;;;;15.47;10.10;;;9.40;99.60;;;;;;5069344;28;20414;-72
2023/12/19 12:03:48;;;;;;;12.40;9.50;;;9.30;99.10;;;;;;5069566;28;20431;-72
2023/12/19 12:06:18;;;;;;;17.57;10.40;;;9.10;99.50;;;;;;5069399;28;20452;-73
2023/12/19 12:08:54;;;;;;;15.20;9.13;;;9.00;99.90;;;;;;5069386;28;20216;-74
2023/12/19 12:11:19;;;;;;;16.73;11.33;;;8.40;99.90;;;;;;5069713;28;20555;-73
2023/12/19 12:13:59;;;;;;;19.93;11.27;;;8.00;99.90;;;;;;5069107;28;20900;-74
2023/12/19 12:16:37;;;;;;;15.73;10.13;;;7.70;99.90;;;;;;5068748;28;20238;-72
2023/12/19 12:19:18;;;;;;;15.80;10.93;;;7.40;99.90;;;;;;5068519;28;20439;-73
2023/12/19 12:21:52;;;;;;;19.67;11.07;;;7.30;99.90;;;;;;5066699;28;20417;-73
2023/12/19 12:24:22;;;;;;;16.97;11.70;;;7.10;99.90;;;;;;5068556;28;20539;-73
2023/12/19 12:26:51;;;;;;;17.30;11.70;;;7.10;99.90;;;;;;5068032;28;21256;-73
2023/12/19 12:29:18;;;;;;;18.70;12.33;;;7.10;99.90;;;;;;5066928;28;20425;-72
2023/12/19 12:31:46;;;;;;;17.37;11.13;;;6.90;99.90;;;;;;5068054;28;20559;-72
2023/12/19 12:34:12;;;;;;;17.10;11.63;;;6.80;99.90;;;;;;5068056;28;20425;-72
2023/12/19 12:36:38;;;;;;;18.33;11.10;;;6.70;99.90;;;;;;5068140;28;20439;-72
2023/12/19 12:39:04;;;;;;;20.97;11.70;;;6.60;99.90;;;;;;5050390;28;20796;-73
2023/12/19 12:41:30;;;;;;;17.40;12.17;;;6.40;99.90;;;;;;5066320;28;20418;-72
2023/12/19 12:43:56;;;;;;;17.97;13.80;;;6.30;99.90;;;;;;5067994;28;20424;-72
2023/12/19 12:46:24;;;;;;;22.60;12.53;;;6.00;99.90;;;;;;5066534;28;20242;-72
2023/12/19 12:48:52;;;;;;;20.10;11.17;;;5.60;99.90;;;;;;5067701;28;20179;-72
2023/12/19 12:51:22;;;;;;;14.37;10.57;;;5.50;99.90;;;;;;5066028;28;20794;-72